createdAt,value
2017-05-30T00:02:13.903Z,15.63
2017-05-30T00:04:40.639Z,15.58
2017-05-30T00:07:07.259Z,15.93
2017-05-30T00:09:34.015Z,19.07
2017-05-30T00:12:00.644Z,18.20
2017-05-30T00:14:27.267Z,18.68
2017-05-30T00:16:53.915Z,18.50
2017-05-30T00:19:20.536Z,17.17
2017-05-30T00:21:47.155Z,17.22
2017-05-30T00:24:13.803Z,20.20
2017-05-30T00:26:40.496Z,19.88
2017-05-30T00:29:07.119Z,15.32
2017-05-30T00:31:33.971Z,15.17
2017-05-30T00:34:00.615Z,14.28
2017-05-30T00:36:27.259Z,15.42
2017-05-30T00:38:53.912Z,14.98
2017-05-30T00:41:20.535Z,15.32
2017-05-30T00:43:47.270Z,15.07
2017-05-30T00:46:13.915Z,20.68
2017-05-30T00:48:40.651Z,17.47
2017-05-30T00:51:07.271Z,23.93
2017-05-30T00:53:33.927Z,17.83
2017-05-30T00:56:00.546Z,23.07
2017-05-30T00:58:27.202Z,21.30
2017-05-30T01:00:53.947Z,20.50
2017-05-30T01:03:20.566Z,19.33
2017-05-30T01:05:47.231Z,18.67
2017-05-30T01:08:13.968Z,19.12
2017-05-30T01:10:40.707Z,17.93
2017-05-30T01:13:07.351Z,16.47
2017-05-30T01:15:34.090Z,24.47
2017-05-30T01:18:00.735Z,19.80
2017-05-30T01:20:27.471Z,22.13
2017-05-30T01:22:54.111Z,18.78
2017-05-30T01:25:20.731Z,17.48
2017-05-30T01:27:47.359Z,19.57
2017-05-30T01:30:14.008Z,20.25
2017-05-30T01:32:40.632Z,18.62
2017-05-30T01:35:07.307Z,21.70
2017-05-30T01:37:34.355Z,19.13
2017-05-30T01:40:00.989Z,22.18
2017-05-30T01:42:27.731Z,22.40
2017-05-30T01:44:54.619Z,20.58
2017-05-30T01:47:21.243Z,19.07
2017-05-30T01:49:47.889Z,19.42
2017-05-30T01:52:14.535Z,18.55
2017-05-30T01:54:41.364Z,21.18
2017-05-30T01:57:07.989Z,17.37
2017-05-30T01:59:34.635Z,21.85
2017-05-30T02:02:01.354Z,26.88
2017-05-30T02:04:27.995Z,17.37
2017-05-30T02:06:54.738Z,20.80
2017-05-30T02:09:21.379Z,23.93
2017-05-30T02:11:47.999Z,21.93
2017-05-30T02:14:14.663Z,18.07
2017-05-30T02:16:41.287Z,21.27
2017-05-30T02:19:07.911Z,23.23
2017-05-30T02:21:34.575Z,22.12
2017-05-30T02:24:01.200Z,21.25
2017-05-30T02:26:27.827Z,19.65
2017-05-30T02:28:54.590Z,20.42
2017-05-30T02:31:21.211Z,17.57
2017-05-30T02:33:47.879Z,18.72
2017-05-30T02:36:14.531Z,21.75
2017-05-30T02:38:41.255Z,21.52
2017-05-30T02:41:07.979Z,20.68
2017-05-30T02:43:34.736Z,23.18
2017-05-30T02:46:01.363Z,22.20
2017-05-30T02:48:27.991Z,20.28
2017-05-30T02:50:54.647Z,26.10
2017-05-30T02:53:21.271Z,23.85
2017-05-30T02:55:47.932Z,19.05
2017-05-30T02:58:14.578Z,16.32
2017-05-30T03:00:41.203Z,19.10
2017-05-30T03:03:07.827Z,21.50
2017-05-30T03:05:34.487Z,19.73
2017-05-30T03:08:01.115Z,19.17
2017-05-30T03:10:27.762Z,17.92
2017-05-30T03:12:54.433Z,24.43
2017-05-30T03:15:21.892Z,21.83
2017-05-30T03:17:48.607Z,25.05
2017-05-30T03:20:15.343Z,22.87
2017-05-30T03:22:41.979Z,17.37
2017-05-30T03:25:08.618Z,17.22
2017-05-30T03:27:35.263Z,23.98
2017-05-30T03:30:01.998Z,16.97
2017-05-30T03:32:28.619Z,17.15
2017-05-30T03:34:55.300Z,21.18
2017-05-30T03:37:21.933Z,20.32
2017-05-30T03:39:48.559Z,24.12
2017-05-30T03:42:15.611Z,21.77
2017-05-30T03:44:42.236Z,20.13
2017-05-30T03:47:08.883Z,15.80
2017-05-30T03:49:35.533Z,23.08
2017-05-30T03:52:02.159Z,18.75
2017-05-30T03:54:28.799Z,20.55
2017-05-30T03:56:55.533Z,21.33
2017-05-30T03:59:22.154Z,15.32
2017-05-30T04:01:48.819Z,16.63
2017-05-30T04:04:15.471Z,15.30
2017-05-30T04:06:42.095Z,14.50
2017-05-30T04:09:08.710Z,13.72
2017-05-30T04:11:35.360Z,15.57
2017-05-30T04:14:01.987Z,18.40
2017-05-30T04:16:28.663Z,17.20
2017-05-30T04:18:55.313Z,17.22
2017-05-30T04:21:22.031Z,13.67
2017-05-30T04:23:48.673Z,15.33
2017-05-30T04:26:15.449Z,13.17
2017-05-30T04:28:42.075Z,13.78
2017-05-30T04:31:08.711Z,14.62
2017-05-30T04:33:35.551Z,15.18
2017-05-30T04:36:02.178Z,14.65
2017-05-30T04:38:29.092Z,13.00
2017-05-30T04:40:55.735Z,20.97
2017-05-30T04:43:22.355Z,16.45
2017-05-30T04:45:49.381Z,12.77
2017-05-30T04:48:17.043Z,16.55
2017-05-30T04:50:43.687Z,16.63
2017-05-30T04:53:10.317Z,13.90
2017-05-30T04:55:37.063Z,15.30
2017-05-30T04:58:03.679Z,15.27
2017-05-30T05:00:30.369Z,12.20
2017-05-30T05:02:58.414Z,14.15
2017-05-30T05:05:25.065Z,22.87
2017-05-30T05:07:54.032Z,12.10
2017-05-30T05:10:21.640Z,12.85
2017-05-30T05:12:50.661Z,12.75
2017-05-30T05:15:19.655Z,12.72
2017-05-30T05:17:46.427Z,14.74
2017-05-30T05:20:13.181Z,11.25
2017-05-30T05:22:39.799Z,13.33
2017-05-30T05:25:06.971Z,12.58
2017-05-30T05:27:33.647Z,12.18
2017-05-30T05:30:01.962Z,13.30
2017-05-30T05:32:28.945Z,13.28
2017-05-30T05:34:55.767Z,17.45
2017-05-30T05:37:22.531Z,10.97
2017-05-30T05:39:49.776Z,15.50
2017-05-30T05:42:16.447Z,14.15
2017-05-30T05:44:43.067Z,12.42
2017-05-30T05:47:10.075Z,12.25
2017-05-30T05:49:37.541Z,10.50
2017-05-30T05:52:04.367Z,11.47
2017-05-30T05:54:32.683Z,12.93
2017-05-30T05:56:59.935Z,14.37
2017-05-30T05:59:27.085Z,10.90
2017-05-30T06:01:54.368Z,10.78
2017-05-30T06:04:21.035Z,13.45
2017-05-30T06:06:47.688Z,13.65
2017-05-30T06:09:14.975Z,11.93
2017-05-30T06:11:41.683Z,10.93
2017-05-30T06:14:08.303Z,11.55
2017-05-30T06:16:35.687Z,11.45
2017-05-30T06:19:03.678Z,10.55
2017-05-30T06:21:30.397Z,12.67
2017-05-30T06:23:57.075Z,10.15
2017-05-30T06:26:23.691Z,11.43
2017-05-30T06:28:50.447Z,12.90
2017-05-30T06:31:17.090Z,10.03
2017-05-30T06:33:43.796Z,11.12
2017-05-30T06:36:10.591Z,10.45
2017-05-30T06:38:37.263Z,12.55
2017-05-30T06:41:04.135Z,10.18
2017-05-30T06:43:30.752Z,10.90
2017-05-30T06:45:57.395Z,14.32
2017-05-30T06:48:24.010Z,11.60
2017-05-30T06:50:50.627Z,14.22
2017-05-30T06:53:17.272Z,14.30
2017-05-30T06:55:43.948Z,10.12
2017-05-30T06:58:10.567Z,12.95
2017-05-30T07:00:37.361Z,12.75
2017-05-30T07:03:03.975Z,13.22
2017-05-30T07:05:30.591Z,10.73
2017-05-30T07:07:57.381Z,13.90
2017-05-30T07:10:23.998Z,13.75
2017-05-30T07:12:50.619Z,13.45
2017-05-30T07:15:17.271Z,12.85
2017-05-30T07:17:44.000Z,12.67
2017-05-30T07:20:10.623Z,15.65
2017-05-30T07:22:37.291Z,10.72
2017-05-30T07:25:04.030Z,14.57
2017-05-30T07:27:30.642Z,14.90
2017-05-30T07:29:57.283Z,12.72
2017-05-30T07:32:23.945Z,24.77
2017-05-30T07:34:50.568Z,12.33
2017-05-30T07:37:17.216Z,11.67
2017-05-30T07:39:43.967Z,12.20
2017-05-30T07:42:10.591Z,16.52
2017-05-30T07:44:37.256Z,10.00
2017-05-30T07:47:03.893Z,19.60
2017-05-30T07:49:30.524Z,11.88
2017-05-30T07:51:57.194Z,15.25
2017-05-30T07:54:23.825Z,11.25
2017-05-30T07:56:50.464Z,11.32
2017-05-30T07:59:17.119Z,16.48
2017-05-30T08:01:43.766Z,13.43
2017-05-30T08:04:10.392Z,15.12
2017-05-30T08:06:37.047Z,15.23
2017-05-30T08:09:03.781Z,15.72
2017-05-30T08:11:30.471Z,20.37
2017-05-30T08:13:57.218Z,12.97
2017-05-30T08:16:23.838Z,14.55
2017-05-30T08:18:50.496Z,17.17
2017-05-30T08:21:17.563Z,16.75
2017-05-30T08:23:44.214Z,14.88
2017-05-30T08:26:10.851Z,12.37
2017-05-30T08:28:37.496Z,13.62
2017-05-30T08:31:04.202Z,13.92
2017-05-30T08:33:30.840Z,10.95
2017-05-30T08:35:57.509Z,13.40
2017-05-30T08:38:24.128Z,12.33
2017-05-30T08:40:50.759Z,10.88
2017-05-30T08:43:17.411Z,17.10
2017-05-30T08:45:44.042Z,18.15
2017-05-30T08:48:10.668Z,11.10
2017-05-30T08:50:37.319Z,16.12
2017-05-30T08:53:03.965Z,13.88
2017-05-30T08:55:30.699Z,13.20
2017-05-30T08:57:57.365Z,12.48
2017-05-30T09:00:24.014Z,12.85
2017-05-30T09:02:50.657Z,10.55
2017-05-30T09:05:17.368Z,11.23
2017-05-30T09:07:43.995Z,25.05
2017-05-30T09:10:10.615Z,13.65
2017-05-30T09:12:37.267Z,11.30
2017-05-30T09:15:03.907Z,13.00
2017-05-30T09:17:30.523Z,41.82
2017-05-30T09:19:57.168Z,16.05
2017-05-30T09:22:23.790Z,11.42
2017-05-30T09:24:50.459Z,11.75
2017-05-30T09:27:17.117Z,13.03
2017-05-30T09:29:43.731Z,15.82
2017-05-30T09:32:10.414Z,14.28
2017-05-30T09:34:37.155Z,15.72
2017-05-30T09:37:03.775Z,16.72
2017-05-30T09:39:30.499Z,12.45
2017-05-30T09:41:57.143Z,13.42
2017-05-30T09:44:23.758Z,12.50
2017-05-30T09:46:50.402Z,10.83
2017-05-30T09:49:17.067Z,16.42
2017-05-30T09:51:43.703Z,11.07
2017-05-30T09:54:10.323Z,14.57
2017-05-30T09:56:36.982Z,13.22
2017-05-30T09:59:03.603Z,11.20
2017-05-30T10:01:30.223Z,14.05
2017-05-30T10:03:56.862Z,10.12
2017-05-30T10:06:23.527Z,11.68
2017-05-30T10:08:50.159Z,17.98
2017-05-30T10:11:16.807Z,12.93
2017-05-30T10:13:43.426Z,11.95
2017-05-30T10:16:10.054Z,10.73
2017-05-30T10:18:36.695Z,14.57
2017-05-30T10:21:03.328Z,17.15
2017-05-30T10:23:29.950Z,12.13
2017-05-30T10:25:56.599Z,11.53
2017-05-30T10:28:23.223Z,12.08
2017-05-30T10:30:49.852Z,14.40
2017-05-30T10:33:16.565Z,19.93
2017-05-30T10:35:43.195Z,14.33
2017-05-30T10:38:09.839Z,14.30
2017-05-30T10:40:36.486Z,12.43
2017-05-30T10:43:03.215Z,14.02
2017-05-30T10:45:29.855Z,14.43
2017-05-30T10:47:56.498Z,12.57
2017-05-30T10:50:23.118Z,14.97
2017-05-30T10:52:49.739Z,12.07
2017-05-30T10:55:16.447Z,13.15
2017-05-30T10:57:43.151Z,12.28
2017-05-30T11:00:09.774Z,12.25
2017-05-30T11:02:36.484Z,12.75
2017-05-30T11:05:03.171Z,16.30
2017-05-30T11:07:29.838Z,19.77
2017-05-30T11:09:56.588Z,14.30
2017-05-30T11:12:23.230Z,30.77
2017-05-30T11:14:49.855Z,17.28
2017-05-30T11:17:16.504Z,18.08
2017-05-30T11:19:43.142Z,15.08
2017-05-30T11:22:09.760Z,13.02
2017-05-30T11:24:36.411Z,18.07
2017-05-30T11:27:03.033Z,14.78
2017-05-30T11:29:29.763Z,13.43
2017-05-30T11:31:56.403Z,12.27
2017-05-30T11:34:23.044Z,12.20
2017-05-30T11:36:49.666Z,12.77
2017-05-30T11:39:16.312Z,13.33
2017-05-30T11:41:42.934Z,13.10
2017-05-30T11:44:09.558Z,11.87
2017-05-30T11:46:36.239Z,12.38
2017-05-30T11:49:02.866Z,12.67
2017-05-30T11:51:29.483Z,13.13
2017-05-30T11:53:56.155Z,12.77
2017-05-30T11:56:22.776Z,11.82
2017-05-30T11:58:49.399Z,18.17
2017-05-30T12:01:16.051Z,19.78
2017-05-30T12:03:43.567Z,12.28
2017-05-30T12:06:11.071Z,13.65
2017-05-30T12:08:37.779Z,11.23
2017-05-30T12:11:04.714Z,12.33
2017-05-30T12:13:31.418Z,12.65
2017-05-30T12:15:58.093Z,12.74
2017-05-30T12:18:25.194Z,11.98
2017-05-30T12:20:52.499Z,14.02
2017-05-30T12:23:19.425Z,6.60
2017-05-30T12:25:46.063Z,6.22
2017-05-30T12:28:13.031Z,6.26
2017-05-30T12:30:39.731Z,5.98
2017-05-30T12:33:06.346Z,6.84
2017-05-30T12:35:32.963Z,5.42
2017-05-30T12:37:59.607Z,6.90
2017-05-30T12:40:26.232Z,16.06
2017-05-30T12:42:52.927Z,7.40
2017-05-30T12:45:20.116Z,6.26
2017-05-30T12:47:46.762Z,6.08
2017-05-30T12:50:13.388Z,18.12
2017-05-30T12:52:40.023Z,5.62
2017-05-30T12:55:06.739Z,14.06
2017-05-30T12:57:33.354Z,9.08
2017-05-30T13:00:00.016Z,6.18
2017-05-30T13:02:26.656Z,9.72
2017-05-30T13:04:53.267Z,7.98
2017-05-30T13:07:20.243Z,5.42
2017-05-30T13:09:46.860Z,9.54
2017-05-30T13:12:13.475Z,7.06
2017-05-30T13:14:40.159Z,5.72
2017-05-30T13:17:06.795Z,7.42
2017-05-30T13:19:33.418Z,4.94
2017-05-30T13:22:00.055Z,7.54
2017-05-30T13:24:26.674Z,6.80
2017-05-30T13:26:53.287Z,4.16
2017-05-30T13:29:19.927Z,6.96
2017-05-30T13:31:46.539Z,6.78
2017-05-30T13:34:13.271Z,5.92
2017-05-30T13:36:39.935Z,4.76
2017-05-30T13:39:06.651Z,4.60
2017-05-30T13:41:33.311Z,4.90
2017-05-30T13:43:59.957Z,4.86
2017-05-30T13:46:26.675Z,7.64
2017-05-30T13:48:53.290Z,3.82
2017-05-30T13:51:19.930Z,4.02
2017-05-30T13:53:46.547Z,6.36
2017-05-30T13:56:13.222Z,4.48
2017-05-30T13:58:39.964Z,5.12
2017-05-30T14:01:06.578Z,3.54
2017-05-30T14:03:33.194Z,3.22
2017-05-30T14:05:59.883Z,5.90
2017-05-30T14:08:26.499Z,4.74
2017-05-30T14:10:53.159Z,8.80
2017-05-30T14:13:19.807Z,3.58
2017-05-30T14:15:46.420Z,4.64
2017-05-30T14:18:13.112Z,3.62
2017-05-30T14:20:39.751Z,3.62
2017-05-30T14:23:06.366Z,3.62
2017-05-30T14:25:32.980Z,3.20
2017-05-30T14:27:59.623Z,4.04
2017-05-30T14:30:26.271Z,5.02
2017-05-30T14:32:52.890Z,33.50
2017-05-30T14:35:19.650Z,4.52
2017-05-30T14:37:46.271Z,6.54
2017-05-30T14:40:12.891Z,4.00
2017-05-30T14:42:39.569Z,4.22
2017-05-30T14:45:06.184Z,3.22
2017-05-30T14:47:32.848Z,3.30
2017-05-30T14:49:59.587Z,4.40
2017-05-30T14:52:26.227Z,3.98
2017-05-30T14:54:52.838Z,3.06
2017-05-30T14:57:19.503Z,7.78
2017-05-30T14:59:46.127Z,20.44
2017-05-30T15:02:12.743Z,4.86
2017-05-30T15:04:39.425Z,4.10
2017-05-30T15:07:06.043Z,7.42
2017-05-30T15:09:32.703Z,7.04
2017-05-30T15:11:59.343Z,17.74
2017-05-30T15:14:25.960Z,7.64
2017-05-30T15:16:52.579Z,5.86
2017-05-30T15:19:19.228Z,10.24
2017-05-30T15:21:45.890Z,5.44
2017-05-30T15:24:12.519Z,6.40
2017-05-30T15:26:39.155Z,5.62
2017-05-30T15:29:05.846Z,5.96
2017-05-30T15:31:32.551Z,10.02
2017-05-30T15:33:59.191Z,7.40
2017-05-30T15:36:25.831Z,6.98
2017-05-30T15:38:52.447Z,8.90
2017-05-30T15:41:19.107Z,6.56
2017-05-30T15:43:45.729Z,11.14
2017-05-30T15:46:14.527Z,4.34
2017-05-30T15:48:42.667Z,13.58
2017-05-30T15:51:10.823Z,8.72
2017-05-30T15:53:39.485Z,8.18
2017-05-30T15:56:06.163Z,6.36
2017-05-30T15:58:32.787Z,6.24
2017-05-30T16:00:59.420Z,11.42
2017-05-30T16:03:26.153Z,6.14
2017-05-30T16:05:52.776Z,7.26
2017-05-30T16:08:19.411Z,4.16
2017-05-30T16:10:46.051Z,5.08
2017-05-30T16:13:12.662Z,7.06
2017-05-30T16:15:39.283Z,4.26
2017-05-30T16:18:05.927Z,4.52
2017-05-30T16:20:32.604Z,4.28
2017-05-30T16:22:59.751Z,3.40
2017-05-30T16:25:26.403Z,3.80
2017-05-30T16:27:53.132Z,5.82
2017-05-30T16:30:19.766Z,6.75
2017-05-30T16:32:46.411Z,7.98
2017-05-30T16:35:13.031Z,5.82
2017-05-30T16:37:39.656Z,5.03
2017-05-30T16:40:06.338Z,8.90
2017-05-30T16:42:32.977Z,5.95
2017-05-30T16:44:59.598Z,7.08
2017-05-30T16:47:26.239Z,5.78
2017-05-30T16:49:52.859Z,12.60
2017-05-30T16:52:19.525Z,5.44
2017-05-30T16:54:46.166Z,5.64
2017-05-30T16:57:12.786Z,4.44
2017-05-30T16:59:39.407Z,4.42
2017-05-30T17:02:06.047Z,7.56
2017-05-30T17:04:32.668Z,4.16
2017-05-30T17:06:59.356Z,5.00
2017-05-30T17:09:26.011Z,7.64
2017-05-30T17:11:52.624Z,6.50
2017-05-30T17:14:19.243Z,4.90
2017-05-30T17:16:45.902Z,3.68
2017-05-30T17:19:12.523Z,4.12
2017-05-30T17:21:39.163Z,6.06
2017-05-30T17:24:05.918Z,4.50
2017-05-30T17:26:32.539Z,8.58
2017-05-30T17:28:59.164Z,4.48
2017-05-30T17:31:25.815Z,5.73
2017-05-30T17:33:52.440Z,4.35
2017-05-30T17:36:19.067Z,4.87
2017-05-30T17:38:45.711Z,4.42
2017-05-30T17:41:12.355Z,4.27
2017-05-30T17:43:38.991Z,5.55
2017-05-30T17:46:05.655Z,5.68
2017-05-30T17:48:32.297Z,4.67
2017-05-30T17:50:58.981Z,4.92
2017-05-30T17:53:25.704Z,4.87
2017-05-30T17:55:52.323Z,4.92
2017-05-30T17:58:18.948Z,6.30
2017-05-30T18:00:45.592Z,5.90
2017-05-30T18:03:12.216Z,5.83
2017-05-30T18:05:38.832Z,5.53
2017-05-30T18:08:05.471Z,4.72
2017-05-30T18:10:32.171Z,5.90
2017-05-30T18:12:58.787Z,7.85
2017-05-30T18:15:25.429Z,5.47
2017-05-30T18:17:52.085Z,8.28
2017-05-30T18:20:18.722Z,8.53
2017-05-30T18:22:45.362Z,8.10
2017-05-30T18:25:11.974Z,7.83
2017-05-30T18:27:38.595Z,8.20
2017-05-30T18:30:05.234Z,5.35
2017-05-30T18:32:31.919Z,4.65
2017-05-30T18:34:58.544Z,5.80
2017-05-30T18:37:25.187Z,5.83
2017-05-30T18:39:51.800Z,5.55
2017-05-30T18:42:18.475Z,8.03
2017-05-30T18:44:45.215Z,9.07
2017-05-30T18:47:11.851Z,6.18
2017-05-30T18:49:38.473Z,5.77
2017-05-30T18:52:05.138Z,7.70
2017-05-30T18:54:31.752Z,7.33
2017-05-30T18:56:58.415Z,5.47
2017-05-30T18:59:25.067Z,6.87
2017-05-30T19:01:51.686Z,5.58
2017-05-30T19:04:18.314Z,5.82
2017-05-30T19:06:44.954Z,6.05
2017-05-30T19:09:11.566Z,5.15
2017-05-30T19:11:38.189Z,8.12
2017-05-30T19:14:04.859Z,7.78
2017-05-30T19:16:31.523Z,4.78
2017-05-30T19:18:58.140Z,4.72
2017-05-30T19:21:24.836Z,6.45
2017-05-30T19:23:51.543Z,7.27
2017-05-30T19:26:18.175Z,13.17
2017-05-30T19:28:44.819Z,30.92
2017-05-30T19:31:11.438Z,9.45
2017-05-30T19:33:38.050Z,5.38
2017-05-30T19:36:04.687Z,4.97
2017-05-30T19:38:31.304Z,6.10
2017-05-30T19:40:57.978Z,6.78
2017-05-30T19:43:24.614Z,6.82
2017-05-30T19:45:51.231Z,6.37
2017-05-30T19:48:17.843Z,5.43
2017-05-30T19:50:44.479Z,5.25
2017-05-30T19:53:11.095Z,9.93
2017-05-30T19:55:37.747Z,8.75
2017-05-30T19:58:04.388Z,6.28
2017-05-30T20:00:31.008Z,6.60
2017-05-30T20:02:57.697Z,5.80
2017-05-30T20:05:24.402Z,6.73
2017-05-30T20:07:51.043Z,7.27
2017-05-30T20:10:17.668Z,10.90
2017-05-30T20:12:44.318Z,7.32
2017-05-30T20:15:10.935Z,6.87
2017-05-30T20:17:37.551Z,5.70
2017-05-30T20:20:04.218Z,8.90
2017-05-30T20:22:30.835Z,7.22
2017-05-30T20:24:57.450Z,6.03
2017-05-30T20:27:24.087Z,6.62
2017-05-30T20:29:50.795Z,7.82
2017-05-30T20:32:17.415Z,7.43
2017-05-30T20:34:44.056Z,7.35
2017-05-30T20:37:10.711Z,8.60
2017-05-30T20:39:37.337Z,6.87
2017-05-30T20:42:03.972Z,8.83
2017-05-30T20:44:30.589Z,7.70
2017-05-30T20:46:57.267Z,8.55
2017-05-30T20:49:23.907Z,9.43
2017-05-30T20:51:50.550Z,10.88
2017-05-30T20:54:17.182Z,10.38
2017-05-30T20:56:43.831Z,11.70
2017-05-30T20:59:10.466Z,8.80
2017-05-30T21:01:37.098Z,10.97
2017-05-30T21:04:03.842Z,9.42
2017-05-30T21:06:30.478Z,9.35
2017-05-30T21:08:57.103Z,9.53
2017-05-30T21:11:23.758Z,9.25
2017-05-30T21:13:50.372Z,9.45
2017-05-30T21:16:17.035Z,13.92
2017-05-30T21:18:43.675Z,8.55
2017-05-30T21:21:10.295Z,8.85
2017-05-30T21:23:36.910Z,10.95
2017-05-30T21:26:03.591Z,9.38
2017-05-30T21:28:30.231Z,9.05
2017-05-30T21:30:56.871Z,8.03
2017-05-30T21:33:23.535Z,9.97
2017-05-30T21:35:50.159Z,10.43
2017-05-30T21:38:16.788Z,9.38
2017-05-30T21:40:43.839Z,10.88
2017-05-30T21:43:10.474Z,9.87
2017-05-30T21:45:37.091Z,8.85
2017-05-30T21:48:03.727Z,9.60
2017-05-30T21:50:30.390Z,9.42
2017-05-30T21:52:57.035Z,10.10
2017-05-30T21:55:23.680Z,10.17
2017-05-30T21:57:50.304Z,9.80
2017-05-30T22:00:16.942Z,8.67
2017-05-30T22:02:43.690Z,10.63
2017-05-30T22:05:10.302Z,8.97
2017-05-30T22:07:36.966Z,11.42
2017-05-30T22:10:03.611Z,10.88
2017-05-30T22:12:30.235Z,9.62
2017-05-30T22:14:56.855Z,13.92
2017-05-30T22:17:23.527Z,12.88
2017-05-30T22:19:50.147Z,13.12
2017-05-30T22:22:16.804Z,15.22
2017-05-30T22:24:43.543Z,12.77
2017-05-30T22:27:10.163Z,11.63
2017-05-30T22:29:36.786Z,12.23
2017-05-30T22:32:03.428Z,12.37
2017-05-30T22:34:30.070Z,11.43
2017-05-30T22:36:56.739Z,12.65
2017-05-30T22:39:23.389Z,9.63
2017-05-30T22:41:50.006Z,10.58
2017-05-30T22:44:16.663Z,11.48
2017-05-30T22:46:43.403Z,11.65
2017-05-30T22:49:10.033Z,11.65
2017-05-30T22:51:36.655Z,12.35
2017-05-30T22:54:03.299Z,12.20
2017-05-30T22:56:29.918Z,13.08
2017-05-30T22:58:56.591Z,18.92
2017-05-30T23:01:23.263Z,18.30
2017-05-30T23:03:49.971Z,18.18
2017-05-30T23:06:16.598Z,17.20
2017-05-30T23:08:43.350Z,15.28
2017-05-30T23:11:09.994Z,17.93
2017-05-30T23:13:36.614Z,16.30
2017-05-30T23:16:03.262Z,17.63
2017-05-30T23:18:29.888Z,19.48
2017-05-30T23:20:56.511Z,19.68
2017-05-30T23:23:23.155Z,18.47
2017-05-30T23:25:49.785Z,14.60
2017-05-30T23:28:16.402Z,12.13
2017-05-30T23:30:43.108Z,11.50
2017-05-30T23:33:09.747Z,13.08
2017-05-30T23:35:36.372Z,12.23
2017-05-30T23:38:03.011Z,13.23
2017-05-30T23:40:29.663Z,12.32
2017-05-30T23:42:56.300Z,12.27
2017-05-30T23:45:22.943Z,11.22
2017-05-30T23:47:49.574Z,10.87
2017-05-30T23:50:16.318Z,13.28
2017-05-30T23:52:43.059Z,13.92
2017-05-30T23:55:09.679Z,12.62
2017-05-30T23:57:36.338Z,14.28
